HNL weather

Daniel K Inouye International Airport
Honolulu, Hawaii, United States

Public forecast

Using degrees Fahrenheit for public forecast. Weather courtesy of forecast.io.

Current aviation weather report (METAR) for Daniel K Inouye International Airport

Retrieved 2020/01/24 18:53 UTC (41 minutes ago):

PHNL 241853Z 02003KT 10SM FEW050 23/17 A3009

Aviation forecast (TAF) for Daniel K Inouye International Airport

Retrieved 2020/01/24 18:27 UTC (1 hour ago):

TAF PHNL 241724Z 2418/2524 32003KT P6SM FEW030 SCT070 FM242100 21008KT P6SM FEW030 SCT080 FM250300 02004KT P6SM FEW030 FM252000 06010KT P6SM FEW030